Hauptseite
METAR-TAF:

METAR-TAF

Flughäfen :

Flugplatz Toussus-le-Noble

Toussus-le-Noble, Frankreich

Breite: 48-46N, Länge: 002-06E, Höhe: 164 m

Beobachtung

Neuester Wetterbericht von vor 28 Minuten, um 00:00 UTC
Windstille
Temperatur 3°C
Luftfeuchtigkeit 100%
Luftdruck 1025 hPa
Sichtweite: 5000 m
feuchter Dunst

METAR: LFPN 210000Z AUTO 00000KT 5000 BR NSC 03/03 Q1025

Zeit: 01:28 (00:28 UTC)

Prognose

Neuester Wetterbericht von vor 7 Stunden und 28 Minuten, um 17:00 UTC
Gültige Prognose vom 20 um 18 UTC bis 21 um 03 UTC
Wind 3 kt aus unterschiedlichen Richtungen
Sichtweite 10 km oder mehr
keine Wolken unter 1500 m und keine Kumulonimbus oder Gewitterwolken
Übergehend zu
vom 20 um 22 UTC bis 21 um 01 UTC
Sichtweite: 3000 m
feuchter Dunst
Zeitweise
vom 21 um 00 UTC bis 21 um 03 UTC
Sichtweite: 0300 m
Nebel

TAF: LFPN 201700Z 2018/2103 VRB03KT CAVOK BECMG 2022/2101 3000 BR TEMPO 2100/2103 0300 FG VV///

Wetterbeobachtungen und Prognosen von mehr als 4000 Flughäfen (METAR und TAF Bericht).

Die verfügbaren Stationen werden durch gelbe und rote Markierungen auf der Karte dargestellt.

Führen Sie die Maus auf sie, um den Namen der Station zu sehen.

Darauf klicken, um die Beobachtung von Wetterbeobachtungen und Prognosen zu sehen.

Um die Karte zu ändern : klicken Sie auf den grünen Tasten mit einem schwarzen Kreuz Zum Vergrößern, auf den grünen Button mit einem Gedankenstrich zu verkleinern, oder auf die grünen Pfeile für benachbarte Karten.


METAR-TAF: